Time;durP1;ratioP1;P1;durP2;ratioP2;P2;SDS_P1;SDS_P2;PMS_P1;PMS_P2;Temp;Humidity;BMP_temperature;BMP_pressure;BME280_temperature;BME280_humidity;BME280_pressure;Samples;Min_cycle;Max_cycle;Signal;HPM_P1;HPM_P2
2022/11/26 00:02:23;;;;;;;28.85;19.17;;;;;;;;;;4995088;28;20019;-72
2022/11/26 00:04:49;;;;;;;30.40;19.95;;;;;;;;;;4995089;28;20073;-75
2022/11/26 00:07:18;;;;;;;33.15;21.92;;;;;;;;;;4990187;28;20019;-73
2022/11/26 00:09:47;;;;;;;33.80;19.75;;;;;;;;;;4994279;28;20030;-71
2022/11/26 00:12:17;;;;;;;27.35;18.70;;;;;;;;;;4994555;28;20058;-74
2022/11/26 00:14:43;;;;;;;28.65;19.80;;;;;;;;;;4995082;28;20369;-72
2022/11/26 00:17:13;;;;;;;30.50;21.65;;;;;;;;;;4994172;28;20432;-71
2022/11/26 00:19:39;;;;;;;36.10;21.80;;;;;;;;;;4995181;28;20026;-71
2022/11/26 00:22:06;;;;;;;29.60;19.92;;;;;;;;;;4994631;28;20444;-73
2022/11/26 00:24:32;;;;;;;23.77;16.50;;;;;;;;;;4994503;28;20027;-75
2022/11/26 00:26:59;;;;;;;23.10;15.35;;;;;;;;;;4994780;28;20025;-73
2022/11/26 00:29:25;;;;;;;24.65;15.20;;;;;;;;;;4994465;28;20049;-72
2022/11/26 00:31:51;;;;;;;27.08;16.65;;;;;;;;;;4994238;28;20148;-71
2022/11/26 00:34:17;;;;;;;27.95;21.35;;;;;;;;;;4994679;28;20031;-74
2022/11/26 00:36:44;;;;;;;40.83;18.65;;;;;;;;;;4992038;28;20025;-75
2022/11/26 00:39:12;;;;;;;30.65;19.05;;;;;;;;;;4994162;28;20484;-73
2022/11/26 00:41:39;;;;;;;29.25;20.13;;;;;;;;;;4993681;28;20018;-70
2022/11/26 00:44:16;;;;;;;35.75;22.13;;;;;;;;;;4994079;28;20023;-75
2022/11/26 00:46:42;;;;;;;32.92;21.00;;;;;;;;;;4994617;28;20026;-71
2022/11/26 00:49:08;;;;;;;38.65;23.13;;;;;;;;;;4976563;28;20030;-73
2022/11/26 00:51:34;;;;;;;46.22;25.60;;;;;;;;;;4994107;28;20022;-72
2022/11/26 00:54:01;;;;;;;52.78;30.83;;;;;;;;;;4994134;28;20030;-73
2022/11/26 00:56:28;;;;;;;61.22;35.40;;;;;;;;;;4994118;28;20088;-71
2022/11/26 00:58:54;;;;;;;62.65;37.75;;;;;;;;;;4993530;28;20034;-74
2022/11/26 01:01:21;;;;;;;56.88;32.60;;;;;;;;;;4993802;28;20034;-72
2022/11/26 01:03:48;;;;;;;41.05;26.85;;;;;;;;;;4993573;28;20049;-73
2022/11/26 01:06:28;;;;;;;43.47;27.90;;;;;;;;;;4993888;28;20030;-73
2022/11/26 01:08:54;;;;;;;49.05;30.17;;;;;;;;;;4993957;28;20018;-73
2022/11/26 01:11:21;;;;;;;52.67;30.67;;;;;;;;;;4993886;28;20018;-73
2022/11/26 01:13:48;;;;;;;50.15;32.92;;;;;;;;;;4993577;28;20038;-73
2022/11/26 01:16:17;;;;;;;44.78;28.02;;;;;;;;;;4993358;28;20113;-73
2022/11/26 01:18:43;;;;;;;39.40;25.10;;;;;;;;;;4993627;28;20049;-73
2022/11/26 01:21:12;;;;;;;35.70;24.25;;;;;;;;;;4993746;28;20077;-74
2022/11/26 01:23:38;;;;;;;34.38;21.35;;;;;;;;;;4993353;28;20057;-73
2022/11/26 01:26:04;;;;;;;34.05;20.08;;;;;;;;;;4993528;28;20030;-72
2022/11/26 01:28:30;;;;;;;30.17;19.25;;;;;;;;;;4993580;28;20342;-73
2022/11/26 01:30:56;;;;;;;32.10;18.63;;;;;;;;;;4993645;28;20037;-73
2022/11/26 01:33:23;;;;;;;29.55;18.30;;;;;;;;;;4993808;28;20501;-75
2022/11/26 01:35:49;;;;;;;31.65;20.05;;;;;;;;;;4994063;28;20376;-75
2022/11/26 01:38:15;;;;;;;32.65;19.33;;;;;;;;;;4993781;28;20026;-73
2022/11/26 01:40:49;;;;;;;34.30;20.13;;;;;;;;;;4994013;28;20033;-75
2022/11/26 01:43:41;;;;;;;33.13;19.35;;;;;;;;;;4993582;28;20774;-75
2022/11/26 01:46:18;;;;;;;31.70;19.52;;;;;;;;;;4987419;28;20043;-74
2022/11/26 01:48:44;;;;;;;39.25;23.15;;;;;;;;;;4993337;28;20030;-74
2022/11/26 01:51:11;;;;;;;35.60;20.77;;;;;;;;;;4993052;28;20362;-73
2022/11/26 01:53:37;;;;;;;33.50;18.83;;;;;;;;;;4992952;28;20115;-71
2022/11/26 01:56:23;;;;;;;28.15;18.48;;;;;;;;;;4993553;28;20090;-71
2022/11/26 01:59:02;;;;;;;27.77;18.20;;;;;;;;;;4993077;28;20532;-72
2022/11/26 02:01:28;;;;;;;25.80;17.02;;;;;;;;;;4979995;28;20022;-72
2022/11/26 02:03:54;;;;;;;25.05;17.17;;;;;;;;;;4993541;28;20106;-72
2022/11/26 02:06:22;;;;;;;23.95;15.93;;;;;;;;;;4993788;28;20053;-72
2022/11/26 02:08:48;;;;;;;24.60;15.95;;;;;;;;;;4993277;28;20085;-72
2022/11/26 02:11:18;;;;;;;21.13;13.73;;;;;;;;;;4993390;28;20034;-72
2022/11/26 02:13:46;;;;;;;20.38;14.05;;;;;;;;;;4993476;28;20034;-72
2022/11/26 02:16:15;;;;;;;24.27;13.80;;;;;;;;;;4993068;28;20027;-72
2022/11/26 02:18:43;;;;;;;25.00;16.00;;;;;;;;;;4973075;28;20097;-72
2022/11/26 02:21:18;;;;;;;25.77;16.58;;;;;;;;;;4989789;28;20047;-72
2022/11/26 02:23:44;;;;;;;25.40;15.05;;;;;;;;;;4993333;28;20022;-72
2022/11/26 02:26:16;;;;;;;25.02;16.20;;;;;;;;;;4993232;28;20089;-72
2022/11/26 02:28:48;;;;;;;24.15;13.20;;;;;;;;;;4993414;28;20469;-72
2022/11/26 02:31:49;;;;;;;17.63;12.32;;;;;;;;;;4992980;28;20469;-71
2022/11/26 02:34:45;;;;;;;20.95;14.50;;;;;;;;;;4895467;29;20070;-72
2022/11/26 02:37:24;;;;;;;23.92;13.23;;;;;;;;;;4858198;29;20037;-72
2022/11/26 02:39:51;;;;;;;22.75;13.75;;;;;;;;;;4858024;29;20565;-72
2022/11/26 02:42:26;;;;;;;20.35;12.50;;;;;;;;;;4858055;29;20485;-72
2022/11/26 02:44:53;;;;;;;20.15;12.60;;;;;;;;;;4858236;29;20045;-72
2022/11/26 02:47:20;;;;;;;18.25;12.38;;;;;;;;;;4858081;29;20073;-73
2022/11/26 02:49:47;;;;;;;22.10;13.63;;;;;;;;;;4858141;29;20411;-75
2022/11/26 02:52:14;;;;;;;17.90;11.82;;;;;;;;;;4857898;29;20493;-75
2022/11/26 02:54:42;;;;;;;16.17;11.52;;;;;;;;;;4857886;29;20049;-74
2022/11/26 02:57:11;;;;;;;16.25;11.77;;;;;;;;;;4857975;29;20033;-75
2022/11/26 02:59:38;;;;;;;25.98;17.33;;;;;;;;;;4858072;29;20045;-74
2022/11/26 03:02:23;;;;;;;17.92;12.35;;;;;;;;;;4870968;29;20411;-73
2022/11/26 03:04:51;;;;;;;18.65;11.60;;;;;;;;;;4861003;29;20030;-74
2022/11/26 03:07:17;;;;;;;18.17;12.23;;;;;;;;;;4872363;29;20041;-73
2022/11/26 03:09:49;;;;;;;16.23;11.82;;;;;;;;;;4955595;29;20031;-73
2022/11/26 03:12:15;;;;;;;18.60;12.45;;;;;;;;;;4955671;29;20118;-72
2022/11/26 03:14:41;;;;;;;21.60;13.63;;;;;;;;;;4995643;28;20042;-72
2022/11/26 03:17:07;;;;;;;18.27;12.93;;;;;;;;;;4996274;28;20532;-74
2022/11/26 03:19:33;;;;;;;16.77;12.45;;;;;;;;;;4996427;28;20022;-74
2022/11/26 03:21:59;;;;;;;18.38;12.18;;;;;;;;;;4996493;28;20097;-75
2022/11/26 03:24:25;;;;;;;19.73;12.18;;;;;;;;;;4996292;28;20031;-75
2022/11/26 03:26:52;;;;;;;21.25;12.43;;;;;;;;;;4996282;28;20019;-75
2022/11/26 03:29:18;;;;;;;20.17;11.80;;;;;;;;;;4996413;28;20484;-75
2022/11/26 03:31:44;;;;;;;17.98;10.15;;;;;;;;;;4996008;28;20026;-72
2022/11/26 03:34:10;;;;;;;15.70;9.75;;;;;;;;;;4996164;28;20072;-72
2022/11/26 03:36:36;;;;;;;13.13;9.63;;;;;;;;;;4996150;28;20034;-74
2022/11/26 03:39:02;;;;;;;16.63;10.32;;;;;;;;;;5002267;28;20053;-74
2022/11/26 03:41:28;;;;;;;16.25;10.73;;;;;;;;;;4996301;28;20485;-74
2022/11/26 03:43:54;;;;;;;18.83;12.80;;;;;;;;;;4995974;28;20488;-74
2022/11/26 03:46:20;;;;;;;18.85;11.93;;;;;;;;;;4995636;28;20124;-75
2022/11/26 03:48:46;;;;;;;19.48;12.52;;;;;;;;;;4996115;28;20030;-74
2022/11/26 03:51:12;;;;;;;18.27;11.88;;;;;;;;;;4995626;28;20026;-74
2022/11/26 03:53:38;;;;;;;15.85;11.23;;;;;;;;;;4995973;28;20362;-74
2022/11/26 03:56:04;;;;;;;19.95;12.65;;;;;;;;;;4995818;28;20019;-74
2022/11/26 03:58:30;;;;;;;23.17;12.38;;;;;;;;;;4995590;28;20065;-73
2022/11/26 04:00:56;;;;;;;24.10;13.88;;;;;;;;;;4995800;28;20034;-75
2022/11/26 04:03:22;;;;;;;20.17;13.88;;;;;;;;;;4995936;28;20026;-73
2022/11/26 04:05:48;;;;;;;22.85;14.68;;;;;;;;;;4995717;28;20027;-73
2022/11/26 04:08:14;;;;;;;24.70;13.63;;;;;;;;;;4995782;28;20377;-74
2022/11/26 04:10:40;;;;;;;19.17;11.10;;;;;;;;;;4995864;28;20019;-73
2022/11/26 04:13:06;;;;;;;20.90;11.93;;;;;;;;;;4995490;28;20069;-73
2022/11/26 04:15:33;;;;;;;18.58;11.82;;;;;;;;;;4995020;28;20018;-74
2022/11/26 04:17:59;;;;;;;20.75;11.25;;;;;;;;;;4995289;28;20113;-75
2022/11/26 04:20:25;;;;;;;15.45;10.02;;;;;;;;;;4995392;28;20015;-75
2022/11/26 04:22:51;;;;;;;16.08;10.50;;;;;;;;;;4995257;28;20104;-75
2022/11/26 04:25:18;;;;;;;13.63;10.00;;;;;;;;;;4995346;28;20484;-75
2022/11/26 04:27:44;;;;;;;15.10;9.93;;;;;;;;;;4995465;28;20137;-75
2022/11/26 04:30:10;;;;;;;11.60;8.60;;;;;;;;;;4995073;28;20073;-75
2022/11/26 04:32:38;;;;;;;16.75;8.93;;;;;;;;;;4995078;28;20140;-74
2022/11/26 04:35:05;;;;;;;13.40;8.55;;;;;;;;;;4995142;28;20022;-73
2022/11/26 04:37:31;;;;;;;13.05;9.27;;;;;;;;;;4995014;28;20038;-72
2022/11/26 04:39:57;;;;;;;14.27;9.60;;;;;;;;;;4994923;28;20062;-73
2022/11/26 04:42:23;;;;;;;18.95;13.23;;;;;;;;;;4994804;28;20029;-72
2022/11/26 04:44:49;;;;;;;14.30;9.85;;;;;;;;;;4994959;28;20022;-73
2022/11/26 04:47:15;;;;;;;15.00;10.15;;;;;;;;;;4994527;28;20547;-73
2022/11/26 04:49:41;;;;;;;15.57;10.45;;;;;;;;;;4994797;28;20138;-74
2022/11/26 04:52:07;;;;;;;21.88;12.30;;;;;;;;;;4994802;28;20023;-74
2022/11/26 04:54:33;;;;;;;17.02;11.77;;;;;;;;;;4994723;28;20042;-73
2022/11/26 04:56:59;;;;;;;16.70;10.93;;;;;;;;;;4994452;28;20092;-73
2022/11/26 04:59:25;;;;;;;17.33;11.30;;;;;;;;;;4977045;28;20710;-73
2022/11/26 05:01:52;;;;;;;19.75;10.82;;;;;;;;;;4994512;28;20362;-73
2022/11/26 05:04:19;;;;;;;13.63;9.35;;;;;;;;;;4994447;28;20061;-73
2022/11/26 05:06:45;;;;;;;17.85;10.88;;;;;;;;;;4994498;28;20025;-72
2022/11/26 05:09:11;;;;;;;18.10;11.35;;;;;;;;;;4994812;28;20023;-72
2022/11/26 05:11:37;;;;;;;16.10;11.05;;;;;;;;;;4994343;28;20022;-72
2022/11/26 05:14:03;;;;;;;16.48;11.73;;;;;;;;;;4994161;28;20405;-72
2022/11/26 05:16:29;;;;;;;15.95;11.75;;;;;;;;;;4993918;28;20074;-72
2022/11/26 05:18:56;;;;;;;23.88;14.85;;;;;;;;;;4994630;28;20376;-72
2022/11/26 05:21:22;;;;;;;19.95;14.20;;;;;;;;;;4994254;28;20057;-75
2022/11/26 05:23:48;;;;;;;18.27;12.85;;;;;;;;;;4994056;28;20014;-74
2022/11/26 05:26:14;;;;;;;19.08;11.95;;;;;;;;;;4993584;28;20420;-73
2022/11/26 05:28:40;;;;;;;14.20;11.13;;;;;;;;;;4994161;28;20022;-74
2022/11/26 05:31:06;;;;;;;20.25;12.20;;;;;;;;;;4994221;28;20065;-74
2022/11/26 05:33:32;;;;;;;52.22;30.25;;;;;;;;;;4993867;28;20093;-76
2022/11/26 05:35:58;;;;;;;22.52;14.45;;;;;;;;;;4994115;28;20045;-75
2022/11/26 05:38:24;;;;;;;28.63;18.38;;;;;;;;;;4993867;28;20030;-74
2022/11/26 05:40:50;;;;;;;29.67;17.20;;;;;;;;;;4993947;28;20065;-75
2022/11/26 05:43:16;;;;;;;22.50;14.40;;;;;;;;;;4993917;28;20117;-74
2022/11/26 05:45:42;;;;;;;19.42;12.57;;;;;;;;;;4994192;28;20424;-75
2022/11/26 05:48:08;;;;;;;17.20;11.85;;;;;;;;;;4993751;28;20058;-74
2022/11/26 05:50:34;;;;;;;20.73;12.63;;;;;;;;;;4993696;28;20022;-74
2022/11/26 05:53:00;;;;;;;20.60;13.30;;;;;;;;;;4993678;28;20085;-72
2022/11/26 05:55:26;;;;;;;23.02;15.45;;;;;;;;;;4993466;28;20026;-73
2022/11/26 05:57:52;;;;;;;32.78;19.85;;;;;;;;;;4993521;28;20173;-72
2022/11/26 06:00:18;;;;;;;39.40;24.33;;;;;;;;;;4993515;28;20357;-72
2022/11/26 06:02:44;;;;;;;40.33;23.75;;;;;;;;;;4993524;28;20022;-72
2022/11/26 06:05:11;;;;;;;32.08;20.13;;;;;;;;;;4993542;28;20109;-73
2022/11/26 06:07:37;;;;;;;30.52;20.75;;;;;;;;;;4993454;28;20468;-73
2022/11/26 06:10:03;;;;;;;33.92;21.10;;;;;;;;;;4993519;28;20054;-72
2022/11/26 06:12:29;;;;;;;40.03;23.90;;;;;;;;;;4993200;28;20133;-72
2022/11/26 06:14:55;;;;;;;39.47;26.00;;;;;;;;;;4993579;28;20415;-73
2022/11/26 06:17:21;;;;;;;41.40;26.63;;;;;;;;;;4992925;28;20409;-72
2022/11/26 06:19:47;;;;;;;36.33;25.13;;;;;;;;;;4993608;28;20022;-72
2022/11/26 06:22:13;;;;;;;43.97;28.17;;;;;;;;;;4993433;28;20025;-73
2022/11/26 06:24:39;;;;;;;58.63;33.53;;;;;;;;;;4993239;28;20049;-72
2022/11/26 06:27:06;;;;;;;55.08;32.08;;;;;;;;;;4993397;28;20159;-72
2022/11/26 06:29:32;;;;;;;35.47;26.45;;;;;;;;;;4993155;28;20109;-72
2022/11/26 06:31:58;;;;;;;54.30;38.40;;;;;;;;;;4993035;28;20064;-73
2022/11/26 06:34:24;;;;;;;35.30;24.98;;;;;;;;;;4993407;28;20404;-73
2022/11/26 06:36:50;;;;;;;34.10;24.55;;;;;;;;;;4993191;28;20376;-72
2022/11/26 06:39:16;;;;;;;28.25;20.20;;;;;;;;;;4997120;28;20496;-72
2022/11/26 06:41:42;;;;;;;30.95;20.52;;;;;;;;;;4997180;28;20372;-72
2022/11/26 06:44:08;;;;;;;29.45;18.80;;;;;;;;;;4996947;28;20057;-72
2022/11/26 06:46:35;;;;;;;30.50;20.08;;;;;;;;;;4996931;28;20027;-72
2022/11/26 06:49:04;;;;;;;31.05;19.73;;;;;;;;;;4996993;28;20023;-72
2022/11/26 06:51:30;;;;;;;30.83;19.58;;;;;;;;;;4997166;28;20447;-74
2022/11/26 06:53:56;;;;;;;37.33;22.65;;;;;;;;;;4996818;28;20038;-73
2022/11/26 06:56:22;;;;;;;38.38;22.65;;;;;;;;;;4996902;28;20050;-73
2022/11/26 06:58:49;;;;;;;39.03;24.65;;;;;;;;;;4996673;28;20109;-73
2022/11/26 07:01:16;;;;;;;44.70;27.88;;;;;;;;;;4996844;28;20089;-73
2022/11/26 07:03:43;;;;;;;47.42;29.38;;;;;;;;;;4996445;28;20100;-73
2022/11/26 07:06:35;;;;;;;41.58;27.02;;;;;;;;;;4996731;28;20058;-73
2022/11/26 07:09:04;;;;;;;52.78;29.40;;;;;;;;;;4992440;28;20117;-73
2022/11/26 07:11:30;;;;;;;40.08;24.73;;;;;;;;;;4996571;28;20058;-73
2022/11/26 07:13:56;;;;;;;42.22;22.13;;;;;;;;;;4996382;28;20038;-74
2022/11/26 07:16:23;;;;;;;34.30;23.08;;;;;;;;;;4996314;28;20046;-73
2022/11/26 07:18:50;;;;;;;42.95;24.40;;;;;;;;;;4996320;28;20485;-72
2022/11/26 07:21:16;;;;;;;41.70;26.55;;;;;;;;;;4996284;28;20026;-73
2022/11/26 07:23:42;;;;;;;48.67;31.35;;;;;;;;;;4996444;28;20025;-73
2022/11/26 07:26:09;;;;;;;59.95;35.78;;;;;;;;;;4996166;28;20515;-73
2022/11/26 07:28:35;;;;;;;63.33;37.50;;;;;;;;;;4996172;28;20105;-73
2022/11/26 07:31:03;;;;;;;65.72;37.08;;;;;;;;;;4996146;28;20029;-72
2022/11/26 07:33:29;;;;;;;69.50;41.95;;;;;;;;;;4995936;28;20061;-73
2022/11/26 07:35:59;;;;;;;55.10;35.53;;;;;;;;;;4996151;28;20069;-74
2022/11/26 07:38:25;;;;;;;74.75;43.15;;;;;;;;;;4995976;28;20022;-73
2022/11/26 07:40:51;;;;;;;43.17;28.48;;;;;;;;;;4996017;28;20496;-73
2022/11/26 07:43:17;;;;;;;45.47;28.70;;;;;;;;;;4995942;28;20030;-73
2022/11/26 07:45:43;;;;;;;36.85;26.58;;;;;;;;;;4996524;28;20018;-74
2022/11/26 07:48:09;;;;;;;37.25;26.45;;;;;;;;;;4995771;28;20030;-72
2022/11/26 07:50:35;;;;;;;40.28;26.67;;;;;;;;;;4994702;28;20101;-76
2022/11/26 07:53:01;;;;;;;35.35;23.15;;;;;;;;;;4995823;28;20026;-76
2022/11/26 07:55:28;;;;;;;38.58;26.45;;;;;;;;;;4995561;28;20031;-75
2022/11/26 07:57:54;;;;;;;44.88;30.15;;;;;;;;;;4995764;28;20033;-75
2022/11/26 08:00:20;;;;;;;57.72;32.65;;;;;;;;;;4995531;28;20528;-76
2022/11/26 08:02:46;;;;;;;69.55;45.10;;;;;;;;;;4995626;28;20022;-75
2022/11/26 08:05:12;;;;;;;49.00;34.33;;;;;;;;;;4995724;28;20499;-76
2022/11/26 08:07:38;;;;;;;57.42;38.00;;;;;;;;;;4995923;28;20442;-74
2022/11/26 08:10:05;;;;;;;37.25;26.27;;;;;;;;;;4995631;28;20109;-74
2022/11/26 08:12:31;;;;;;;45.28;32.40;;;;;;;;;;4995344;28;20022;-74
2022/11/26 08:14:57;;;;;;;45.97;32.70;;;;;;;;;;4995620;28;20034;-74
2022/11/26 08:17:23;;;;;;;60.45;35.75;;;;;;;;;;4995044;28;20065;-74
2022/11/26 08:19:49;;;;;;;46.58;34.53;;;;;;;;;;4995566;28;20027;-74
2022/11/26 08:22:15;;;;;;;57.22;41.00;;;;;;;;;;4995280;28;20076;-75
2022/11/26 08:24:41;;;;;;;60.35;43.55;;;;;;;;;;4995114;28;20026;-76
2022/11/26 08:27:07;;;;;;;42.95;30.92;;;;;;;;;;4995036;28;20026;-75
2022/11/26 08:29:35;;;;;;;44.38;30.98;;;;;;;;;;4995123;28;20064;-75
2022/11/26 08:32:01;;;;;;;46.00;33.38;;;;;;;;;;4994937;28;20018;-76
2022/11/26 08:34:27;;;;;;;52.42;37.00;;;;;;;;;;4994992;28;20034;-76
2022/11/26 08:36:54;;;;;;;51.00;35.00;;;;;;;;;;4994825;28;20018;-75
2022/11/26 08:39:20;;;;;;;55.83;38.40;;;;;;;;;;4995000;28;20033;-75
2022/11/26 08:41:49;;;;;;;69.05;47.92;;;;;;;;;;4994784;28;20022;-75
2022/11/26 08:44:15;;;;;;;75.00;49.40;;;;;;;;;;4994787;28;20036;-74
2022/11/26 08:46:41;;;;;;;84.38;57.47;;;;;;;;;;4994822;28;20119;-74
2022/11/26 08:49:09;;;;;;;79.10;56.22;;;;;;;;;;4976026;28;20546;-73
2022/11/26 08:51:35;;;;;;;84.65;59.97;;;;;;;;;;4994098;28;20444;-76
2022/11/26 08:54:01;;;;;;;91.65;66.40;;;;;;;;;;4994267;28;20030;-79
2022/11/26 08:56:28;;;;;;;102.50;72.88;;;;;;;;;;4993925;28;20027;-72
2022/11/26 08:58:54;;;;;;;113.95;85.88;;;;;;;;;;4993977;28;20022;-75
2022/11/26 09:01:21;;;;;;;77.22;57.63;;;;;;;;;;4993940;28;20383;-79
2022/11/26 09:03:48;;;;;;;58.75;43.40;;;;;;;;;;4993998;28;20463;-74
2022/11/26 09:06:14;;;;;;;61.63;43.55;;;;;;;;;;4994175;28;20029;-76
2022/11/26 09:09:11;;;;;;;59.58;42.45;;;;;;;;;;4991805;28;20027;-73
2022/11/26 09:11:29;;;;;;;59.80;43.08;;;;;;;;;;4993710;28;20027;-75
2022/11/26 09:13:56;;;;;;;44.42;35.45;;;;;;;;;;4993607;28;20539;-78
2022/11/26 09:16:23;;;;;;;50.72;37.15;;;;;;;;;;4993744;28;20030;-79
2022/11/26 09:18:50;;;;;;;50.72;39.20;;;;;;;;;;4993559;28;20041;-78
2022/11/26 09:21:16;;;;;;;53.28;35.38;;;;;;;;;;4993817;28;20023;-75
2022/11/26 09:23:42;;;;;;;40.92;29.08;;;;;;;;;;4993673;28;20064;-76
2022/11/26 09:26:08;;;;;;;49.75;31.98;;;;;;;;;;4993678;28;20033;-77
2022/11/26 09:28:35;;;;;;;53.97;34.83;;;;;;;;;;4993591;28;20384;-78
2022/11/26 09:31:01;;;;;;;52.95;38.83;;;;;;;;;;4993601;28;20106;-76
2022/11/26 09:33:27;;;;;;;67.15;43.03;;;;;;;;;;4993255;28;20560;-76
2022/11/26 09:35:54;;;;;;;57.40;44.55;;;;;;;;;;4993731;28;20460;-75
2022/11/26 09:38:20;;;;;;;64.95;49.78;;;;;;;;;;4993785;28;20030;-73
2022/11/26 09:40:53;;;;;;;64.55;49.78;;;;;;;;;;4993217;28;20089;-75
2022/11/26 09:43:28;;;;;;;72.60;53.95;;;;;;;;;;4993502;28;20034;-76
2022/11/26 09:45:57;;;;;;;83.47;57.08;;;;;;;;;;4993667;28;20033;-75
2022/11/26 09:48:24;;;;;;;85.10;66.50;;;;;;;;;;4993359;28;20421;-76
2022/11/26 09:50:55;;;;;;;92.90;69.35;;;;;;;;;;4993083;28;20026;-73
2022/11/26 09:53:27;;;;;;;93.72;70.20;;;;;;;;;;4993431;28;20038;-75
2022/11/26 09:55:55;;;;;;;98.80;70.57;;;;;;;;;;4993718;28;20025;-76
2022/11/26 09:58:24;;;;;;;92.05;71.40;;;;;;;;;;4993052;28;20388;-75
2022/11/26 10:00:51;;;;;;;93.30;68.05;;;;;;;;;;4993506;28;20029;-75
2022/11/26 10:03:18;;;;;;;82.35;61.97;;;;;;;;;;4993449;28;20026;-73
2022/11/26 10:05:49;;;;;;;91.05;61.28;;;;;;;;;;4993273;28;20021;-74
2022/11/26 10:08:29;;;;;;;97.18;74.10;;;;;;;;;;4993598;28;20026;-77
2022/11/26 10:10:58;;;;;;;68.53;55.90;;;;;;;;;;4992163;28;20473;-72
2022/11/26 10:13:27;;;;;;;71.75;53.58;;;;;;;;;;4993134;28;20046;-73
2022/11/26 10:16:03;;;;;;;72.85;54.22;;;;;;;;;;4992921;28;20018;-76
2022/11/26 10:18:37;;;;;;;65.40;52.13;;;;;;;;;;4992644;28;20152;-75
2022/11/26 10:21:07;;;;;;;60.70;42.40;;;;;;;;;;4993395;28;20019;-72
2022/11/26 10:23:36;;;;;;;21.42;17.42;;;;;;;;;;4993505;28;20025;-76
2022/11/26 10:26:05;;;;;;;20.08;16.70;;;;;;;;;;4993406;28;20076;-75
2022/11/26 10:28:44;;;;;;;28.33;19.60;;;;;;;;;;4993251;28;20018;-76
2022/11/26 10:31:17;;;;;;;27.85;19.58;;;;;;;;;;4993294;28;20503;-73
2022/11/26 10:34:03;;;;;;;32.90;19.33;;;;;;;;;;4993083;28;20477;-76
2022/11/26 10:36:34;;;;;;;42.80;24.98;;;;;;;;;;4992815;28;20401;-77
2022/11/26 10:39:00;;;;;;;39.00;22.25;;;;;;;;;;4993923;28;20400;-77
2022/11/26 10:41:28;;;;;;;33.50;21.58;;;;;;;;;;4993296;28;20023;-73
2022/11/26 10:43:54;;;;;;;22.73;15.80;;;;;;;;;;4993031;28;20172;-77
2022/11/26 10:46:31;;;;;;;36.45;24.63;;;;;;;;;;4993325;28;20030;-76
2022/11/26 10:49:17;;;;;;;44.45;29.77;;;;;;;;;;4992845;28;20033;-76
2022/11/26 10:51:46;;;;;;;27.27;18.92;;;;;;;;;;4976672;28;20085;-76
2022/11/26 10:54:26;;;;;;;27.33;18.73;;;;;;;;;;4992982;28;20030;-75
2022/11/26 10:56:53;;;;;;;25.27;16.83;;;;;;;;;;4992922;28;20029;-75
2022/11/26 10:59:35;;;;;;;31.90;22.85;;;;;;;;;;4993066;28;20018;-76
2022/11/26 11:02:02;;;;;;;20.08;15.90;;;;;;;;;;4992592;28;20041;-76
2022/11/26 11:04:34;;;;;;;24.17;15.23;;;;;;;;;;4993137;28;20027;-76
2022/11/26 11:07:00;;;;;;;26.58;16.20;;;;;;;;;;4992539;28;20065;-75
2022/11/26 11:09:36;;;;;;;24.30;17.58;;;;;;;;;;4992983;28;20192;-77
2022/11/26 11:12:11;;;;;;;28.02;17.35;;;;;;;;;;4992816;28;20420;-75
2022/11/26 11:14:42;;;;;;;19.42;13.35;;;;;;;;;;4992986;28;20057;-77
2022/11/26 11:17:19;;;;;;;23.80;18.40;;;;;;;;;;4992430;28;20045;-76
2022/11/26 11:19:45;;;;;;;41.90;31.83;;;;;;;;;;4979770;28;20026;-77
2022/11/26 11:22:19;;;;;;;34.45;26.17;;;;;;;;;;4992889;28;20101;-77
2022/11/26 11:24:45;;;;;;;33.78;25.05;;;;;;;;;;4994423;28;20030;-77
2022/11/26 11:27:22;;;;;;;32.75;21.88;;;;;;;;;;4996477;28;20026;-76
2022/11/26 11:29:50;;;;;;;40.20;29.85;;;;;;;;;;4996604;28;20026;-76
2022/11/26 11:32:33;;;;;;;27.35;19.65;;;;;;;;;;4996158;28;20033;-76
2022/11/26 11:35:11;;;;;;;26.52;19.98;;;;;;;;;;4996049;28;20026;-77
2022/11/26 11:37:46;;;;;;;30.65;20.17;;;;;;;;;;4996031;28;20053;-75
2022/11/26 11:40:19;;;;;;;94.60;61.97;;;;;;;;;;4996015;28;20023;-75
2022/11/26 11:42:50;;;;;;;90.28;58.08;;;;;;;;;;4995951;28;20022;-75
2022/11/26 11:45:39;;;;;;;26.60;19.45;;;;;;;;;;4996122;28;20027;-76
2022/11/26 11:48:19;;;;;;;23.45;17.13;;;;;;;;;;4996150;28;20038;-77
2022/11/26 11:50:53;;;;;;;48.05;34.90;;;;;;;;;;4995793;28;20477;-75
2022/11/26 11:53:34;;;;;;;55.90;42.95;;;;;;;;;;4995733;28;20038;-78
2022/11/26 11:56:18;;;;;;;65.95;48.28;;;;;;;;;;4996084;28;20350;-77
2022/11/26 11:58:50;;;;;;;34.63;27.83;;;;;;;;;;4995704;28;20488;-77
2022/11/26 12:01:52;;;;;;;37.55;25.73;;;;;;;;;;4995827;28;20045;-76
2022/11/26 12:04:20;;;;;;;20.42;15.25;;;;;;;;;;4898006;29;20133;-77
2022/11/26 12:06:52;;;;;;;23.33;17.08;;;;;;;;;;4898105;29;20043;-77
2022/11/26 12:09:37;;;;;;;21.80;16.58;;;;;;;;;;4897668;29;20067;-77
2022/11/26 12:12:24;;;;;;;30.13;20.25;;;;;;;;;;4897445;29;20105;-76
2022/11/26 12:14:52;;;;;;;22.15;16.98;;;;;;;;;;4897784;29;20522;-76
2022/11/26 12:17:24;;;;;;;30.95;18.45;;;;;;;;;;4897207;29;20093;-78
2022/11/26 12:19:54;;;;;;;30.25;18.17;;;;;;;;;;4897689;29;20037;-78
2022/11/26 12:22:23;;;;;;;29.02;18.42;;;;;;;;;;4897454;29;20072;-78
2022/11/26 12:24:56;;;;;;;27.48;18.52;;;;;;;;;;4894162;29;20040;-78
2022/11/26 12:27:22;;;;;;;29.92;21.17;;;;;;;;;;4897437;29;20042;-77
2022/11/26 12:29:57;;;;;;;34.53;19.52;;;;;;;;;;4898652;29;20062;-78
2022/11/26 12:32:42;;;;;;;37.03;23.35;;;;;;;;;;4907852;29;20044;-76
2022/11/26 12:35:12;;;;;;;20.98;15.07;;;;;;;;;;4896668;29;20033;-78
2022/11/26 12:37:41;;;;;;;27.92;18.98;;;;;;;;;;4915751;28;20552;-77
2022/11/26 12:40:08;;;;;;;34.28;20.55;;;;;;;;;;4975468;28;20106;-78
2022/11/26 12:42:40;;;;;;;38.22;28.90;;;;;;;;;;4975512;28;20093;-77
2022/11/26 12:45:27;;;;;;;47.97;34.08;;;;;;;;;;4975697;28;20023;-77
2022/11/26 12:47:59;;;;;;;141.55;85.55;;;;;;;;;;4897026;29;20399;-78
2022/11/26 12:50:30;;;;;;;55.17;37.10;;;;;;;;;;4896725;29;20499;-75
2022/11/26 12:53:14;;;;;;;46.72;31.88;;;;;;;;;;4897005;29;20517;-75
2022/11/26 12:55:54;;;;;;;50.42;33.63;;;;;;;;;;4896802;29;20028;-76
2022/11/26 12:58:24;;;;;;;44.13;32.78;;;;;;;;;;4896715;29;20534;-77
2022/11/26 13:00:52;;;;;;;38.85;29.02;;;;;;;;;;4896922;29;20028;-75
2022/11/26 13:03:22;;;;;;;53.20;41.75;;;;;;;;;;4896854;29;20032;-77
2022/11/26 13:06:12;;;;;;;48.90;33.65;;;;;;;;;;4895896;29;20136;-77
2022/11/26 13:08:44;;;;;;;50.30;37.03;;;;;;;;;;4896466;29;20037;-76
2022/11/26 13:11:10;;;;;;;49.30;35.88;;;;;;;;;;4896926;29;20036;-77
2022/11/26 13:13:37;;;;;;;58.35;40.45;;;;;;;;;;4899740;29;20053;-77
2022/11/26 13:16:06;;;;;;;66.53;42.03;;;;;;;;;;4899917;29;20541;-76
2022/11/26 13:18:38;;;;;;;69.68;46.35;;;;;;;;;;4896551;29;20056;-77
2022/11/26 13:21:07;;;;;;;47.42;33.83;;;;;;;;;;4896465;29;20364;-77
2022/11/26 13:23:33;;;;;;;33.17;24.27;;;;;;;;;;4896332;29;20021;-77
2022/11/26 13:26:23;;;;;;;43.63;30.52;;;;;;;;;;4962834;28;20035;-77
2022/11/26 13:28:52;;;;;;;57.50;40.42;;;;;;;;;;4974710;28;20038;-76
2022/11/26 13:31:30;;;;;;;34.88;25.83;;;;;;;;;;4974587;28;20018;-77
2022/11/26 13:34:15;;;;;;;36.92;28.70;;;;;;;;;;4974191;28;20038;-76
2022/11/26 13:36:41;;;;;;;43.03;30.40;;;;;;;;;;4974402;28;20050;-77
2022/11/26 13:39:07;;;;;;;44.83;31.20;;;;;;;;;;4974874;28;20089;-77
2022/11/26 13:41:36;;;;;;;44.70;31.80;;;;;;;;;;4974247;28;20102;-77
2022/11/26 13:44:08;;;;;;;47.17;33.72;;;;;;;;;;4974777;28;20124;-75
2022/11/26 13:46:40;;;;;;;47.55;36.35;;;;;;;;;;4973737;28;20035;-78
2022/11/26 13:49:10;;;;;;;46.00;33.25;;;;;;;;;;4974102;28;20097;-77
2022/11/26 13:51:42;;;;;;;50.00;35.03;;;;;;;;;;4974489;28;20023;-78
2022/11/26 13:54:11;;;;;;;46.67;34.88;;;;;;;;;;4974237;28;20071;-77
2022/11/26 13:56:38;;;;;;;51.50;35.72;;;;;;;;;;4974325;28;20050;-78
2022/11/26 13:59:13;;;;;;;43.42;34.33;;;;;;;;;;4973965;28;20109;-78
2022/11/26 14:01:40;;;;;;;49.10;37.95;;;;;;;;;;4974107;28;20142;-75
2022/11/26 14:04:08;;;;;;;58.25;44.65;;;;;;;;;;4973920;28;20034;-77
2022/11/26 14:06:34;;;;;;;60.22;46.90;;;;;;;;;;4973913;28;20026;-76
2022/11/26 14:09:00;;;;;;;51.63;39.28;;;;;;;;;;4973920;28;20481;-76
2022/11/26 14:11:42;;;;;;;47.03;32.22;;;;;;;;;;4974153;28;20026;-77
2022/11/26 14:14:26;;;;;;;45.35;29.15;;;;;;;;;;4973794;28;20489;-76
2022/11/26 14:17:01;;;;;;;43.47;30.15;;;;;;;;;;4977421;28;20042;-77
2022/11/26 14:19:39;;;;;;;45.30;29.77;;;;;;;;;;4991404;28;20112;-79
2022/11/26 14:22:25;;;;;;;50.00;35.35;;;;;;;;;;4974158;28;20022;-78
2022/11/26 14:24:51;;;;;;;45.38;33.20;;;;;;;;;;4978837;28;20030;-72
2022/11/26 14:27:22;;;;;;;54.85;37.08;;;;;;;;;;4990047;28;20421;-76
2022/11/26 14:29:54;;;;;;;77.90;52.70;;;;;;;;;;4990175;28;20046;-73